Time;durP1;ratioP1;P1;durP2;ratioP2;P2;SDS_P1;SDS_P2;PMS_P1;PMS_P2;Temp;Humidity;BMP_temperature;BMP_pressure;BME280_temperature;BME280_humidity;BME280_pressure;Samples;Min_cycle;Max_cycle;Signal;HPM_P1;HPM_P2
2023/07/02 00:02:09;;;;;;;7.00;3.67;;;16.80;99.90;;;-144.05;82.27;56891.31;4994640;28;20025;-82
2023/07/02 00:04:35;;;;;;;10.82;3.75;;;16.80;99.90;;;-144.05;81.76;56889.19;4994559;28;20022;-82
2023/07/02 00:07:01;;;;;;;5.72;3.83;;;16.80;99.90;;;-144.05;82.04;56908.31;4994380;28;20026;-81
2023/07/02 00:09:27;;;;;;;6.63;4.10;;;16.80;99.90;;;-144.05;82.01;56889.19;4994416;28;20064;-81
2023/07/02 00:11:53;;;;;;;5.68;3.83;;;16.80;99.90;;;-144.05;81.53;56895.56;5012166;28;20036;-82
2023/07/02 00:14:18;;;;;;;5.25;3.47;;;16.80;99.90;;;-144.05;81.70;56891.31;5012223;28;20034;-82
2023/07/02 00:16:46;;;;;;;7.35;3.70;;;16.70;99.90;;;-144.05;81.65;56891.31;5012300;28;20109;-82
2023/07/02 00:19:15;;;;;;;6.93;3.63;;;16.70;99.90;;;-144.05;82.23;56912.56;4994136;28;20030;-82
2023/07/02 00:21:42;;;;;;;5.10;3.33;;;16.70;99.90;;;-144.05;81.89;56901.94;5012000;28;20392;-82
2023/07/02 00:24:09;;;;;;;8.25;3.97;;;16.70;99.90;;;-144.05;81.87;56893.44;5011816;28;20045;-80
2023/07/02 00:26:37;;;;;;;8.32;4.13;;;16.70;99.90;;;-144.05;82.55;56908.31;5023793;28;20166;-80
2023/07/02 00:29:05;;;;;;;6.75;3.38;;;16.70;99.90;;;-144.05;81.97;56895.56;5031816;28;20029;-80
2023/07/02 00:31:33;;;;;;;7.40;3.72;;;16.80;99.90;;;-144.05;82.47;56906.19;5013937;28;20043;-80
2023/07/02 00:34:00;;;;;;;4.63;3.60;;;16.80;99.90;;;-144.05;81.92;56921.06;5031603;28;20075;-80
2023/07/02 00:36:28;;;;;;;13.68;3.63;;;16.80;99.90;;;-144.05;82.22;56897.69;5033280;28;20083;-85
2023/07/02 00:38:54;;;;;;;6.90;4.03;;;16.80;99.90;;;-144.05;81.47;56912.56;5034661;28;20030;-83
2023/07/02 00:41:20;;;;;;;9.35;3.85;;;16.80;99.90;;;-144.05;81.44;56878.56;5016570;28;20033;-82
2023/07/02 00:43:46;;;;;;;6.57;3.92;;;16.80;99.90;;;-144.05;81.24;56912.56;5016653;28;20072;-83
2023/07/02 00:46:19;;;;;;;6.30;4.05;;;16.80;99.90;;;-144.05;80.86;56912.56;5035766;28;20026;-82
2023/07/02 00:48:51;;;;;;;7.78;3.78;;;16.80;99.90;;;-144.05;81.43;56895.56;5035501;28;20036;-85
2023/07/02 00:51:27;;;;;;;9.65;3.58;;;16.80;99.90;;;-144.05;81.27;56912.56;5017215;28;20025;-84
2023/07/02 00:53:58;;;;;;;7.40;3.70;;;16.80;99.90;;;-144.05;81.11;56921.06;5017538;28;20052;-85
2023/07/02 00:56:26;;;;;;;6.00;3.85;;;16.70;99.90;;;-144.05;81.26;56895.56;5016827;28;20489;-85
2023/07/02 00:58:58;;;;;;;6.93;3.25;;;16.70;99.90;;;-144.05;81.23;56891.31;5016587;28;20029;-84
2023/07/02 01:01:28;;;;;;;5.32;3.63;;;16.70;99.90;;;-144.05;80.79;56904.06;5034000;28;20514;-83
2023/07/02 01:04:07;;;;;;;7.47;3.78;;;16.80;99.90;;;-144.05;80.92;56929.53;5016643;28;20030;-83
2023/07/02 01:06:37;;;;;;;5.55;3.50;;;16.70;99.90;;;-144.05;80.78;56906.19;5015885;28;20032;-79
2023/07/02 01:09:05;;;;;;;7.05;3.97;;;16.70;99.90;;;-144.05;80.99;56923.19;5015371;28;20041;-84
2023/07/02 01:11:42;;;;;;;8.77;3.97;;;16.70;99.90;;;-144.05;80.99;56908.31;5033336;28;20029;-81
2023/07/02 01:14:22;;;;;;;5.78;3.55;;;16.70;99.90;;;-144.05;81.19;56906.19;5032693;28;20034;-81
2023/07/02 01:16:50;;;;;;;7.75;3.60;;;16.70;99.90;;;-144.05;81.22;56895.56;5015146;28;20076;-83
2023/07/02 01:19:53;;;;;;;8.05;3.78;;;16.70;99.90;;;-144.05;81.15;56925.28;5013267;28;20090;-82
2023/07/02 01:22:26;;;;;;;9.15;4.10;;;16.70;99.90;;;-144.05;80.69;56908.31;5013351;28;20025;-81
2023/07/02 01:24:54;;;;;;;10.13;3.92;;;16.70;99.90;;;-144.05;80.54;56906.19;5030852;28;20370;-82
2023/07/02 01:27:21;;;;;;;7.40;4.05;;;16.70;99.90;;;-144.05;80.55;56927.41;5012949;28;20034;-81
2023/07/02 01:29:52;;;;;;;8.65;4.38;;;16.60;99.90;;;-144.05;80.57;56908.31;4993562;28;20515;-80
2023/07/02 01:32:18;;;;;;;9.30;4.30;;;16.60;99.90;;;-144.05;81.66;56916.81;4993766;28;20030;-81
2023/07/02 01:34:44;;;;;;;16.50;4.80;;;16.50;99.90;;;-144.05;82.21;56910.44;4993756;28;20060;-78
2023/07/02 01:37:10;;;;;;;7.57;4.22;;;16.50;99.90;;;-144.05;81.63;56899.81;4996251;28;20080;-81
2023/07/02 01:39:36;;;;;;;12.45;4.72;;;16.40;99.90;;;-144.05;82.52;56929.53;5014696;28;20038;-81
2023/07/02 01:42:09;;;;;;;10.52;4.65;;;16.30;99.90;;;-144.05;83.44;56895.56;4996975;28;20072;-80
2023/07/02 01:44:36;;;;;;;8.43;5.13;;;16.30;99.90;;;-144.05;83.29;56895.56;5014772;28;20033;-80
2023/07/02 01:47:03;;;;;;;10.68;4.78;;;16.30;99.90;;;-144.05;82.85;56887.06;5013256;28;20053;-81
2023/07/02 01:49:29;;;;;;;13.32;4.57;;;16.20;99.90;;;-144.05;82.96;56918.94;4996920;28;20465;-81
2023/07/02 01:51:57;;;;;;;13.43;5.70;;;16.20;99.90;;;-144.05;83.19;56901.94;5014356;28;20045;-81
2023/07/02 01:54:29;;;;;;;9.88;4.85;;;16.20;99.90;;;-144.05;82.65;56904.06;5014473;28;20156;-80
2023/07/02 01:56:56;;;;;;;13.55;4.38;;;16.20;99.90;;;-144.05;82.76;56912.56;5014581;28;20400;-83
2023/07/02 01:59:22;;;;;;;11.82;4.65;;;16.10;99.90;;;-144.05;81.87;56921.06;4996502;28;20037;-80
2023/07/02 02:01:48;;;;;;;10.20;5.00;;;16.10;99.90;;;-144.05;81.54;56893.44;5014334;28;20034;-83
2023/07/02 02:04:14;;;;;;;9.88;4.75;;;16.10;99.90;;;-144.05;81.74;56916.81;4996621;28;20038;-82
2023/07/02 02:06:41;;;;;;;10.80;4.85;;;16.10;99.90;;;-144.05;82.16;56893.44;4996562;28;20061;-80
2023/07/02 02:09:09;;;;;;;11.70;4.72;;;16.10;99.90;;;-144.05;81.86;56897.69;5077551;23;20492;-84
2023/07/02 02:11:43;;;;;;;10.45;4.45;;;16.10;99.90;;;-144.05;81.86;56880.69;5063960;28;20460;-82
2023/07/02 02:14:09;;;;;;;10.18;4.18;;;16.10;99.90;;;-144.05;81.50;56921.06;5061847;28;20460;-83
2023/07/02 02:16:34;;;;;;;10.48;4.57;;;16.20;99.90;;;-144.05;81.62;56908.31;5028065;28;20028;-85
2023/07/02 02:19:02;;;;;;;12.90;4.80;;;16.20;99.90;;;-144.05;81.53;56921.06;5027765;28;20583;-85
2023/07/02 02:21:28;;;;;;;9.05;4.82;;;16.20;99.90;;;-144.05;81.46;56893.44;5027476;28;20017;-84
2023/07/02 02:23:54;;;;;;;8.20;4.50;;;16.20;99.90;;;-144.05;81.71;56914.69;5025796;28;20029;-81
2023/07/02 02:26:21;;;;;;;10.10;4.95;;;16.20;99.90;;;-144.05;81.01;56897.69;5026098;28;20022;-83
2023/07/02 02:28:49;;;;;;;10.60;4.90;;;16.20;99.90;;;-144.05;81.11;56910.44;5046201;28;20396;-84
2023/07/02 02:31:18;;;;;;;10.05;4.53;;;16.10;99.90;;;-144.05;80.39;56910.44;5046637;28;20138;-82
2023/07/02 02:33:44;;;;;;;11.98;4.68;;;16.20;99.90;;;-144.05;79.98;56927.41;5028334;28;20461;-82
2023/07/02 02:36:10;;;;;;;11.40;4.60;;;16.20;99.90;;;-144.05;79.65;56895.56;5043586;28;20021;-83
2023/07/02 02:38:37;;;;;;;10.88;4.97;;;16.10;99.90;;;-144.05;79.67;56895.56;5042136;28;20036;-82
2023/07/02 02:41:03;;;;;;;11.63;5.28;;;16.10;99.90;;;-144.05;79.50;56906.19;5043913;28;20448;-84
2023/07/02 02:43:29;;;;;;;12.45;5.72;;;16.00;99.90;;;-144.05;79.43;56895.56;5041089;28;20055;-83
2023/07/02 02:45:55;;;;;;;11.10;5.50;;;16.10;99.90;;;-144.05;79.67;56929.53;5044691;28;20039;-84
2023/07/02 02:48:22;;;;;;;8.90;5.00;;;16.00;99.90;;;-144.05;79.60;56916.81;5046020;28;20104;-83
2023/07/02 02:50:49;;;;;;;10.70;5.97;;;16.00;99.90;;;-144.05;79.03;56931.66;5046112;28;20025;-82
2023/07/02 02:53:15;;;;;;;15.57;5.95;;;16.00;99.90;;;-144.05;78.34;56906.19;5027273;28;20120;-82
2023/07/02 02:55:40;;;;;;;16.13;5.95;;;16.00;99.90;;;-144.05;78.47;56929.53;5048072;28;20175;-83
2023/07/02 02:58:06;;;;;;;12.35;6.38;;;16.10;99.90;;;-144.05;77.94;56908.31;5028366;28;20037;-83
2023/07/02 03:00:32;;;;;;;13.38;6.47;;;16.10;99.90;;;-144.05;77.58;56901.94;5042098;28;20025;-84
2023/07/02 03:02:59;;;;;;;16.05;6.35;;;16.10;99.90;;;-144.05;77.31;56908.31;5042867;28;20435;-83
2023/07/02 03:05:25;;;;;;;12.85;6.90;;;16.00;99.90;;;-144.05;77.30;56923.19;5042111;28;20025;-82
2023/07/02 03:07:52;;;;;;;17.70;6.75;;;16.10;99.90;;;-144.05;76.86;56889.19;5044200;28;20148;-83
2023/07/02 03:10:18;;;;;;;17.45;7.40;;;16.10;99.90;;;-144.05;76.65;56904.06;5042423;28;20102;-86
2023/07/02 03:12:44;;;;;;;14.18;7.00;;;16.00;99.90;;;-144.05;76.41;56921.06;5025930;28;20048;-84
2023/07/02 03:15:10;;;;;;;18.65;7.53;;;16.00;99.90;;;-144.05;76.48;56910.44;5043105;28;20272;-85
2023/07/02 03:17:36;;;;;;;18.38;7.53;;;16.00;99.90;;;-144.05;76.33;56921.06;5042224;28;20033;-84
2023/07/02 03:20:04;;;;;;;16.63;8.10;;;16.00;99.90;;;-144.05;76.09;56929.53;5046215;28;20025;-85
2023/07/02 03:22:30;;;;;;;18.77;9.13;;;16.00;99.90;;;-144.05;75.88;56921.06;5038292;28;20029;-80
2023/07/02 03:24:56;;;;;;;19.50;8.07;;;16.00;99.90;;;-144.05;75.65;56893.44;5030627;28;20514;-85
2023/07/02 03:27:23;;;;;;;18.83;8.25;;;16.00;99.90;;;-144.05;75.85;56923.19;5027032;28;20030;-85
2023/07/02 03:29:49;;;;;;;21.67;9.70;;;16.00;99.90;;;-144.05;75.90;56918.94;5047238;28;20025;-82
2023/07/02 03:32:15;;;;;;;15.60;8.30;;;16.00;99.90;;;-144.05;75.79;56882.81;5030581;28;20055;-82
2023/07/02 03:34:41;;;;;;;19.20;8.40;;;16.00;99.90;;;-144.05;75.90;56895.56;5050633;28;20077;-83
2023/07/02 03:37:08;;;;;;;22.33;9.43;;;16.00;99.90;;;-144.05;75.62;56927.41;5043412;28;20033;-83
2023/07/02 03:39:34;;;;;;;19.35;8.88;;;16.00;99.90;;;-144.05;75.58;56927.41;5024934;28;20104;-84
2023/07/02 03:41:59;;;;;;;24.52;9.63;;;16.00;99.90;;;-144.05;75.60;56910.44;5026778;28;20034;-84
2023/07/02 03:44:25;;;;;;;18.98;9.57;;;16.00;99.90;;;-144.05;74.96;56899.81;5025737;28;20031;-85
2023/07/02 03:46:51;;;;;;;22.55;10.05;;;16.00;99.90;;;-144.05;75.42;56912.56;5027004;28;20078;-83
2023/07/02 03:49:17;;;;;;;19.33;9.43;;;16.00;99.90;;;-144.05;75.61;56921.06;5030524;28;20065;-85
2023/07/02 03:51:43;;;;;;;23.63;10.88;;;16.00;99.90;;;-144.05;75.60;56931.66;5039580;28;20017;-82
2023/07/02 03:54:09;;;;;;;21.50;9.55;;;16.00;99.90;;;-144.05;75.65;56901.94;5040266;28;20022;-80
2023/07/02 03:56:35;;;;;;;22.77;10.77;;;16.00;99.90;;;-144.05;75.52;56904.06;5040158;28;20022;-82
2023/07/02 03:59:00;;;;;;;23.67;9.60;;;16.00;99.90;;;-144.05;75.21;56921.06;5040012;28;20072;-79
2023/07/02 04:01:26;;;;;;;22.38;10.98;;;16.00;99.90;;;-144.05;75.38;56925.28;5039004;28;20032;-82
2023/07/02 04:03:54;;;;;;;24.52;10.40;;;16.00;99.90;;;-144.05;75.41;56912.56;5043594;28;20037;-85
2023/07/02 04:06:20;;;;;;;19.17;10.02;;;16.00;99.90;;;-144.05;74.89;56916.81;5043584;28;20112;-83
2023/07/02 04:08:46;;;;;;;21.50;9.93;;;16.00;99.90;;;-144.05;75.05;56948.66;5024090;28;20069;-83
2023/07/02 04:11:12;;;;;;;20.25;10.70;;;16.00;99.90;;;-144.05;74.96;56906.19;5042686;28;20076;-84
2023/07/02 04:13:39;;;;;;;20.92;10.43;;;16.10;99.90;;;-144.05;75.37;56904.06;5025536;28;20052;-86
2023/07/02 04:16:06;;;;;;;22.67;10.50;;;16.00;99.90;;;-144.05;75.46;56889.19;5043671;28;20148;-83
2023/07/02 04:18:32;;;;;;;23.45;10.82;;;16.00;99.90;;;-144.05;75.53;56918.94;5043322;28;20549;-83
2023/07/02 04:20:58;;;;;;;24.27;11.00;;;16.10;99.90;;;-144.05;75.42;56908.31;5025422;28;20038;-84
2023/07/02 04:23:25;;;;;;;19.95;10.48;;;16.10;99.90;;;-144.05;75.16;56906.19;5024990;28;20456;-82
2023/07/02 04:25:51;;;;;;;23.40;10.65;;;16.10;99.90;;;-144.05;74.71;56904.06;5025047;28;20057;-82
2023/07/02 04:28:18;;;;;;;18.17;9.65;;;16.10;99.90;;;-144.05;74.73;56923.19;5041799;28;20040;-82
2023/07/02 04:30:44;;;;;;;24.30;9.90;;;16.20;99.90;;;-144.05;74.91;56921.06;5043721;28;20056;-83
2023/07/02 04:33:14;;;;;;;20.63;10.35;;;16.10;99.90;;;-144.05;74.79;56935.91;5043176;28;20053;-83
2023/07/02 04:35:40;;;;;;;29.80;11.55;;;16.20;99.90;;;-144.05;75.21;56933.78;5042810;28;20033;-83
2023/07/02 04:38:07;;;;;;;25.10;10.88;;;16.10;99.90;;;-144.05;75.06;56927.41;5042043;28;20056;-84
2023/07/02 04:40:33;;;;;;;21.83;10.98;;;16.10;99.90;;;-144.05;74.75;56921.06;5042974;28;20227;-83
2023/07/02 04:42:59;;;;;;;26.17;10.80;;;16.20;99.90;;;-144.05;74.67;56897.69;5040951;28;20026;-85
2023/07/02 04:45:31;;;;;;;22.70;10.77;;;16.10;99.90;;;-144.05;74.85;56931.66;5041114;28;20052;-82
2023/07/02 04:47:57;;;;;;;24.77;11.70;;;16.10;99.90;;;-144.05;75.40;56910.44;5041078;28;20088;-83
2023/07/02 04:50:23;;;;;;;27.67;11.93;;;16.10;99.90;;;-144.05;75.72;56884.94;5041250;28;20033;-84
2023/07/02 04:52:49;;;;;;;25.25;11.65;;;16.00;99.90;;;-144.05;75.18;56914.69;5041534;28;20397;-84
2023/07/02 04:55:15;;;;;;;26.40;11.63;;;16.10;99.90;;;-144.05;75.28;56927.41;5042004;28;20036;-85
2023/07/02 04:57:41;;;;;;;22.98;11.55;;;16.10;99.90;;;-144.05;75.47;56923.19;5025693;28;20040;-83
2023/07/02 05:00:08;;;;;;;24.17;12.00;;;16.10;99.90;;;-144.05;75.41;56927.41;5037699;28;20370;-80
2023/07/02 05:02:34;;;;;;;25.13;12.00;;;16.10;99.90;;;-144.05;75.66;56906.19;5036110;28;20030;-83
2023/07/02 05:05:00;;;;;;;24.70;11.77;;;16.10;99.90;;;-144.05;75.70;56904.06;5017951;28;20036;-84
2023/07/02 05:07:26;;;;;;;23.50;11.15;;;16.10;99.90;;;-144.05;75.65;56910.44;5017388;28;20021;-82
2023/07/02 05:09:52;;;;;;;27.60;12.15;;;16.10;99.90;;;-144.05;75.37;56916.81;5021263;28;20036;-83
2023/07/02 05:12:19;;;;;;;24.40;11.38;;;16.20;99.90;;;-144.05;74.78;56927.41;5048193;28;20029;-84
2023/07/02 05:14:46;;;;;;;24.67;11.90;;;16.20;99.90;;;-144.05;74.99;56884.94;5049130;28;20101;-83
2023/07/02 05:17:14;;;;;;;25.52;12.65;;;16.20;99.90;;;-144.05;74.88;56897.69;5048804;28;20045;-83
2023/07/02 05:19:41;;;;;;;29.48;12.70;;;16.30;99.90;;;-144.05;74.16;56906.19;5048539;28;20125;-84
2023/07/02 05:22:09;;;;;;;25.15;13.05;;;16.40;99.90;;;-144.05;74.63;56914.69;5048288;28;20400;-85
2023/07/02 05:24:34;;;;;;;23.27;11.88;;;16.40;99.90;;;-144.05;74.49;56895.56;5049619;28;20036;-81
2023/07/02 05:27:00;;;;;;;33.47;14.10;;;16.40;99.90;;;-144.05;74.87;56916.81;5058161;28;20033;-81
2023/07/02 05:29:26;;;;;;;28.40;13.38;;;16.40;99.90;;;-144.05;74.21;56921.06;5055944;28;20037;-83
2023/07/02 05:31:52;;;;;;;28.80;13.75;;;16.50;99.90;;;-144.05;74.16;56910.44;5044445;28;20036;-82
2023/07/02 05:34:18;;;;;;;28.50;13.20;;;16.50;99.90;;;-144.05;74.00;56906.19;5028394;28;20599;-84
2023/07/02 05:36:44;;;;;;;24.27;13.07;;;16.50;99.90;;;-144.05;73.64;56942.28;5028774;28;20056;-85
2023/07/02 05:39:10;;;;;;;27.85;13.15;;;16.60;99.90;;;-144.05;73.33;56921.06;5045237;28;20025;-84
2023/07/02 05:41:36;;;;;;;32.83;13.82;;;16.70;99.90;;;-144.05;73.50;56927.41;5045418;28;20124;-84
2023/07/02 05:44:02;;;;;;;29.05;14.70;;;16.80;99.90;;;-144.05;72.81;56929.53;5047546;28;20040;-84
2023/07/02 05:46:27;;;;;;;31.20;14.43;;;16.90;99.90;;;-144.05;71.96;56897.69;5029563;28;20026;-85
2023/07/02 05:48:57;;;;;;;28.42;13.55;;;17.00;99.90;;;-144.05;72.02;56931.66;5033693;28;20025;-83
2023/07/02 05:51:24;;;;;;;28.58;13.63;;;17.10;99.90;;;-144.05;71.92;56921.06;5023810;28;20037;-83
2023/07/02 05:53:51;;;;;;;27.10;13.55;;;17.10;99.90;;;-144.05;71.47;56927.41;5024103;28;20029;-83
2023/07/02 05:56:18;;;;;;;30.40;14.45;;;17.20;99.90;;;-144.05;71.42;56927.41;5041637;28;20044;-81
2023/07/02 05:58:46;;;;;;;27.92;14.30;;;17.20;99.90;;;-144.05;71.91;56916.81;5040852;28;20025;-83
2023/07/02 06:01:12;;;;;;;29.23;13.73;;;17.10;99.90;;;-144.05;72.34;56908.31;5023210;28;20060;-83
2023/07/02 06:03:38;;;;;;;30.10;14.55;;;17.00;99.90;;;-144.05;72.59;56921.06;5023080;28;20040;-83
2023/07/02 06:06:04;;;;;;;22.58;12.82;;;16.90;99.90;;;-144.05;72.24;56908.31;5023470;28;20025;-82
2023/07/02 06:08:30;;;;;;;29.63;15.15;;;16.90;99.90;;;-144.05;71.97;56912.56;5021767;28;20137;-82
2023/07/02 06:10:56;;;;;;;30.30;13.85;;;17.00;99.90;;;-144.05;71.67;56927.41;5039855;28;20029;-80
2023/07/02 06:13:22;;;;;;;28.42;15.10;;;17.10;99.90;;;-144.05;71.13;56912.56;5025174;28;20085;-83
2023/07/02 06:15:47;;;;;;;32.15;14.68;;;17.10;99.90;;;-144.05;70.88;56931.66;5041322;28;20025;-82
2023/07/02 06:18:14;;;;;;;31.05;13.85;;;17.10;99.90;;;-144.05;70.62;56929.53;5024996;28;20085;-83
2023/07/02 06:20:40;;;;;;;22.08;12.60;;;17.20;99.90;;;-144.05;70.02;56906.19;5041425;28;20045;-83
2023/07/02 06:23:05;;;;;;;32.53;14.52;;;17.30;99.90;;;-144.05;69.15;56912.56;5025849;28;20026;-82
2023/07/02 06:25:31;;;;;;;28.50;14.75;;;17.70;99.90;;;-144.05;67.80;56923.19;5042613;28;20021;-84
2023/07/02 06:27:58;;;;;;;26.77;13.77;;;17.70;99.90;;;-144.05;68.62;56925.28;5043233;28;20358;-83
2023/07/02 06:30:25;;;;;;;32.83;14.65;;;17.80;99.90;;;-144.05;67.53;56912.56;5042654;28;20033;-83
2023/07/02 06:32:51;;;;;;;29.23;14.90;;;17.80;99.90;;;-144.05;67.60;56940.16;5040838;28;20038;-82
2023/07/02 06:35:17;;;;;;;34.33;14.30;;;17.60;99.90;;;-144.05;67.54;56918.94;5043112;28;20071;-84
2023/07/02 06:37:43;;;;;;;26.80;14.13;;;17.70;99.90;;;-144.05;67.14;56946.53;5040946;28;20037;-82
2023/07/02 06:40:10;;;;;;;30.17;15.25;;;17.70;99.90;;;-144.05;66.88;56914.69;5041359;28;20030;-83
2023/07/02 06:42:36;;;;;;;34.67;15.10;;;17.80;99.90;;;-144.05;66.62;56923.19;5040768;28;20032;-84
2023/07/02 06:45:04;;;;;;;29.45;14.43;;;17.80;99.90;;;-144.05;66.31;56908.31;5041305;28;20025;-84
2023/07/02 06:47:30;;;;;;;33.25;14.02;;;17.90;99.90;;;-144.05;64.02;56918.94;5039735;28;20025;-83
2023/07/02 06:49:56;;;;;;;29.38;14.73;;;18.20;99.90;;;-144.05;63.52;56929.53;5042827;28;20033;-83
2023/07/02 06:52:22;;;;;;;27.17;13.77;;;18.40;99.90;;;-144.05;63.59;56944.41;5041219;28;20029;-84
2023/07/02 06:54:48;;;;;;;27.65;14.23;;;18.50;99.90;;;-144.05;62.90;56933.78;5042375;28;20485;-83
2023/07/02 06:57:13;;;;;;;24.88;13.27;;;18.60;99.90;;;-144.05;61.88;56927.41;5040106;28;20045;-83
2023/07/02 06:59:39;;;;;;;28.27;13.98;;;18.80;99.90;;;-144.05;60.80;56938.03;5039610;28;20017;-82
2023/07/02 07:02:06;;;;;;;28.92;13.38;;;19.20;99.90;;;-144.05;58.79;56916.81;5039178;28;20059;-82
2023/07/02 07:04:34;;;;;;;25.92;12.65;;;19.20;99.90;;;-144.05;58.44;56955.03;5039342;28;20064;-82
2023/07/02 07:07:02;;;;;;;24.20;13.00;;;19.30;99.90;;;-144.05;57.70;56946.53;5041217;28;20022;-83
2023/07/02 07:09:29;;;;;;;28.60;13.50;;;19.40;99.90;;;-144.05;58.93;56955.03;5041619;28;20025;-85
2023/07/02 07:11:56;;;;;;;27.35;13.50;;;19.20;99.90;;;-144.05;58.26;56940.16;5042487;28;20477;-82
2023/07/02 07:14:22;;;;;;;26.38;11.82;;;19.20;99.90;;;-144.05;55.10;56931.66;5042442;28;20060;-85
2023/07/02 07:16:48;;;;;;;26.95;10.05;;;18.70;99.90;;;-144.05;53.47;56933.78;5042126;28;20105;-83
2023/07/02 07:19:16;;;;;;;23.27;11.13;;;18.80;99.90;;;-144.05;53.45;56935.91;5039685;28;20392;-84
2023/07/02 07:21:42;;;;;;;23.48;10.70;;;19.10;99.90;;;-144.05;51.31;56935.91;5039968;28;20044;-83
2023/07/02 07:24:08;;;;;;;22.15;9.80;;;19.40;99.90;;;-144.05;49.30;56940.16;5041173;28;20123;-85
2023/07/02 07:26:34;;;;;;;23.98;10.45;;;19.60;99.90;;;-144.05;49.23;56933.78;5043892;28;20029;-84
2023/07/02 07:29:00;;;;;;;20.67;10.13;;;20.00;99.90;;;-144.05;48.02;56950.78;5044982;28;20103;-84
2023/07/02 07:31:26;;;;;;;19.83;10.32;;;20.40;99.90;;;-144.05;45.27;56946.53;5044730;28;20017;-81
2023/07/02 07:33:52;;;;;;;25.90;10.93;;;20.10;99.90;;;-144.05;46.13;56942.28;5054099;28;20033;-81
2023/07/02 07:36:17;;;;;;;24.60;9.90;;;20.00;99.90;;;-144.05;46.56;56972.03;5037034;28;20409;-85
2023/07/02 07:38:44;;;;;;;22.73;10.38;;;19.80;99.90;;;-144.05;47.17;56946.53;5038021;28;20388;-84
2023/07/02 07:41:10;;;;;;;24.23;10.70;;;19.80;99.90;;;-144.05;47.14;56942.28;5039152;28;20489;-85
2023/07/02 07:43:36;;;;;;;23.13;10.60;;;19.60;99.90;;;-144.05;47.89;56938.03;5039860;28;20128;-85
2023/07/02 07:46:01;;;;;;;21.75;10.15;;;19.40;99.90;;;-144.05;47.40;56931.66;5024511;28;20052;-83
2023/07/02 07:48:27;;;;;;;22.25;10.05;;;19.30;99.90;;;-144.05;48.22;56927.41;5036983;28;20141;-84
2023/07/02 07:50:53;;;;;;;22.60;10.75;;;19.20;99.90;;;-144.05;46.69;56927.41;5051050;28;20028;-83
2023/07/02 07:53:19;;;;;;;22.08;10.77;;;19.20;99.90;;;-144.05;48.00;56969.91;5059132;23;20783;-83
2023/07/02 07:55:45;;;;;;;22.52;9.75;;;19.30;99.90;;;-144.05;47.54;56938.03;5016695;28;20045;-86
2023/07/02 07:58:11;;;;;;;20.25;10.48;;;19.30;99.90;;;-144.05;47.57;56940.16;5032428;28;20400;-84
2023/07/02 08:00:37;;;;;;;26.75;11.13;;;19.50;99.90;;;-144.05;46.97;56946.53;5015428;28;20472;-83
2023/07/02 08:03:03;;;;;;;25.27;10.52;;;19.50;99.90;;;-144.05;46.95;56944.41;5033255;28;20033;-81
2023/07/02 08:05:31;;;;;;;19.52;9.68;;;19.30;99.90;;;-144.05;46.89;56942.28;5033535;28;20146;-82
2023/07/02 08:07:57;;;;;;;22.10;10.88;;;19.60;99.90;;;-144.05;46.04;56927.41;5015482;28;20030;-86
2023/07/02 08:10:24;;;;;;;21.30;10.43;;;19.80;99.90;;;-144.05;45.04;56952.91;5015805;28;20424;-86
2023/07/02 08:12:52;;;;;;;25.98;10.68;;;19.70;99.90;;;-144.05;45.56;56931.66;5033468;28;20117;-86
2023/07/02 08:15:18;;;;;;;24.27;10.55;;;19.70;99.90;;;-144.05;45.57;56935.91;5033249;28;20439;-84
2023/07/02 08:17:44;;;;;;;22.85;9.73;;;19.60;99.90;;;-144.05;45.27;56942.28;5016100;28;20060;-84
2023/07/02 08:20:11;;;;;;;23.15;10.30;;;19.60;99.90;;;-144.05;45.49;56942.28;5034419;28;20034;-85
2023/07/02 08:22:39;;;;;;;22.83;10.70;;;19.40;99.90;;;-144.05;46.19;56929.53;5017577;28;20029;-82
2023/07/02 08:25:07;;;;;;;17.55;9.18;;;19.20;99.90;;;-144.05;45.28;56950.78;5017562;28;20091;-84
2023/07/02 08:27:33;;;;;;;19.55;9.93;;;19.10;99.90;;;-144.05;44.71;56946.53;5054054;28;20052;-82
2023/07/02 08:29:59;;;;;;;21.75;9.80;;;19.10;99.90;;;-144.05;44.94;56957.16;5052076;28;20067;-87
2023/07/02 08:32:25;;;;;;;19.92;9.25;;;19.00;99.90;;;-144.05;44.65;56952.91;5043002;28;20029;-86
2023/07/02 08:34:51;;;;;;;21.92;9.40;;;19.30;99.90;;;-144.05;44.12;56950.78;5036683;28;20028;-87
2023/07/02 08:37:21;;;;;;;21.13;9.20;;;19.60;99.90;;;-144.05;44.46;56950.78;5036098;28;20025;-87
2023/07/02 08:39:49;;;;;;;20.00;8.90;;;19.80;99.90;;;-144.05;42.70;56944.41;5035328;28;20040;-84
2023/07/02 08:42:15;;;;;;;23.73;9.73;;;19.90;99.90;;;-144.05;41.90;56976.28;5035677;28;20040;-88
2023/07/02 08:44:47;;;;;;;21.00;9.73;;;20.00;99.90;;;-144.05;42.51;56929.53;5035859;28;20047;-86
2023/07/02 08:47:13;;;;;;;23.38;9.30;;;19.80;99.90;;;-144.05;42.18;56938.03;5056662;28;20049;-86
2023/07/02 08:49:41;;;;;;;20.80;9.60;;;19.70;99.90;;;-144.05;42.57;56948.66;5039899;28;20035;-88
2023/07/02 08:52:07;;;;;;;23.02;9.38;;;19.70;99.90;;;-144.05;42.52;56948.66;5039383;28;20028;-88
2023/07/02 08:54:34;;;;;;;18.33;9.52;;;19.50;99.90;;;-144.05;42.23;56978.41;5039462;28;20041;-88
2023/07/02 08:57:04;;;;;;;17.55;8.65;;;19.50;99.90;;;-144.05;43.32;56965.66;5038938;28;20025;-87
2023/07/02 08:59:31;;;;;;;19.40;9.75;;;19.50;99.90;;;-144.05;43.10;56969.91;5039195;28;20029;-83
2023/07/02 09:01:57;;;;;;;20.48;8.98;;;19.30;99.90;;;-144.05;43.22;56965.66;5039094;28;20021;-88
2023/07/02 09:04:25;;;;;;;21.73;8.77;;;19.30;99.90;;;-144.05;43.41;56940.16;5039137;28;20036;-84
2023/07/02 09:07:10;;;;;;;17.25;8.52;;;19.30;99.90;;;-144.05;43.62;56967.78;5038606;28;20428;-85
2023/07/02 09:09:50;;;;;;;18.08;8.40;;;19.30;99.90;;;-144.05;43.28;56948.66;5038542;28;20472;-86
2023/07/02 09:12:32;;;;;;;19.60;8.68;;;19.60;99.90;;;-144.05;41.08;56935.91;5038305;28;20055;-86
2023/07/02 09:15:06;;;;;;;23.30;8.07;;;20.40;99.90;;;-144.05;39.13;56978.41;5038239;28;20024;-86
2023/07/02 09:17:36;;;;;;;18.00;8.75;;;21.10;99.90;;;-144.05;38.53;56976.28;5038559;28;20033;-86
2023/07/02 09:20:08;;;;;;;19.73;7.75;;;21.20;99.90;;;-144.05;38.08;56967.78;5038253;28;20105;-85
2023/07/02 09:22:38;;;;;;;17.65;8.13;;;21.30;99.90;;;-144.05;38.40;56952.91;5038533;28;20035;-87
2023/07/02 09:25:05;;;;;;;18.55;8.63;;;20.90;99.90;;;-144.05;39.67;56993.25;5038490;28;20389;-87
2023/07/02 09:27:42;;;;;;;17.55;7.75;;;20.60;99.90;;;-144.05;39.10;56955.03;5038640;28;20031;-85
2023/07/02 09:30:15;;;;;;;17.05;7.47;;;20.50;99.90;;;-144.05;39.51;56955.03;5038822;28;20029;-86
2023/07/02 09:32:44;;;;;;;19.65;8.02;;;20.30;99.90;;;-144.05;40.54;56944.41;5038710;28;20518;-84
2023/07/02 09:35:10;;;;;;;21.17;9.23;;;20.40;99.90;;;-144.05;38.94;56935.91;5039452;28;20037;-83
2023/07/02 09:37:39;;;;;;;17.92;7.35;;;20.40;99.90;;;-144.05;38.09;56959.28;5038659;28;20522;-85
2023/07/02 09:40:08;;;;;;;16.27;7.97;;;20.60;99.90;;;-144.05;38.36;56965.66;5038101;28;20033;-86
2023/07/02 09:42:39;;;;;;;16.90;7.28;;;20.90;99.90;;;-144.05;37.47;56965.66;5038552;28;20052;-87
2023/07/02 09:45:11;;;;;;;15.77;6.93;;;21.50;99.90;;;-144.05;36.87;56969.91;5038462;28;20032;-85
2023/07/02 09:47:48;;;;;;;19.63;7.78;;;21.40;99.00;;;-144.05;37.41;56978.41;5039049;28;20108;-86
2023/07/02 09:50:19;;;;;;;15.50;7.25;;;21.30;99.80;;;-144.05;37.13;56980.53;5038238;28;20033;-84
2023/07/02 09:52:47;;;;;;;18.17;7.13;;;21.40;99.60;;;-144.05;36.59;56942.28;5056742;28;20052;-84
2023/07/02 09:55:15;;;;;;;19.55;7.45;;;21.50;98.90;;;-144.05;34.93;56995.38;5038643;28;20033;-88
2023/07/02 09:57:44;;;;;;;13.32;6.30;;;21.90;95.90;;;-144.05;34.78;56995.38;5037891;28;20029;-85
2023/07/02 10:00:12;;;;;;;14.60;7.03;;;22.20;95.80;;;-144.05;34.99;56944.41;5037984;28;20124;-85